sensor_id;sensor_type;location;lat;lon;timestamp;temperature;humidity
7658;DHT22;8462;53.156;8.220;2024-03-02T00:01:37;9.90;99.90
7658;DHT22;8462;53.156;8.220;2024-03-02T00:04:09;9.90;99.90
7658;DHT22;8462;53.156;8.220;2024-03-02T00:06:37;9.90;99.90
7658;DHT22;8462;53.156;8.220;2024-03-02T00:09:09;9.90;99.90
7658;DHT22;8462;53.156;8.220;2024-03-02T00:11:39;9.90;99.90
7658;DHT22;8462;53.156;8.220;2024-03-02T00:14:06;9.80;99.90
7658;DHT22;8462;53.156;8.220;2024-03-02T00:16:38;9.80;99.90
7658;DHT22;8462;53.156;8.220;2024-03-02T00:19:07;9.80;99.90
7658;DHT22;8462;53.156;8.220;2024-03-02T00:21:35;9.80;99.90
7658;DHT22;8462;53.156;8.220;2024-03-02T00:24:18;9.80;99.90
7658;DHT22;8462;53.156;8.220;2024-03-02T00:26:48;9.70;99.90
7658;DHT22;8462;53.156;8.220;2024-03-02T00:29:17;9.70;99.90
7658;DHT22;8462;53.156;8.220;2024-03-02T00:31:47;9.70;99.90
7658;DHT22;8462;53.156;8.220;2024-03-02T00:34:17;9.70;99.90
7658;DHT22;8462;53.156;8.220;2024-03-02T00:36:45;9.70;99.90
7658;DHT22;8462;53.156;8.220;2024-03-02T00:39:16;9.70;99.90
7658;DHT22;8462;53.156;8.220;2024-03-02T00:41:45;9.70;99.90
7658;DHT22;8462;53.156;8.220;2024-03-02T00:44:13;9.70;99.90
7658;DHT22;8462;53.156;8.220;2024-03-02T00:46:44;9.60;99.90
7658;DHT22;8462;53.156;8.220;2024-03-02T00:49:21;9.60;99.90
7658;DHT22;8462;53.156;8.220;2024-03-02T00:51:52;9.60;99.90
7658;DHT22;8462;53.156;8.220;2024-03-02T00:54:23;9.60;99.90
7658;DHT22;8462;53.156;8.220;2024-03-02T00:56:51;9.60;99.90
7658;DHT22;8462;53.156;8.220;2024-03-02T00:59:23;9.60;99.90
7658;DHT22;8462;53.156;8.220;2024-03-02T01:01:51;9.60;99.90
7658;DHT22;8462;53.156;8.220;2024-03-02T01:04:23;9.60;99.90
7658;DHT22;8462;53.156;8.220;2024-03-02T01:06:53;9.50;99.90
7658;DHT22;8462;53.156;8.220;2024-03-02T01:09:24;9.50;99.90
7658;DHT22;8462;53.156;8.220;2024-03-02T01:11:52;9.50;99.90
7658;DHT22;8462;53.156;8.220;2024-03-02T01:14:23;9.50;99.90
7658;DHT22;8462;53.156;8.220;2024-03-02T01:16:51;9.50;99.90
7658;DHT22;8462;53.156;8.220;2024-03-02T01:19:20;9.40;99.90
7658;DHT22;8462;53.156;8.220;2024-03-02T01:21:50;9.50;99.90
7658;DHT22;8462;53.156;8.220;2024-03-02T01:24:17;9.40;99.90
7658;DHT22;8462;53.156;8.220;2024-03-02T01:26:45;9.40;99.90
7658;DHT22;8462;53.156;8.220;2024-03-02T01:29:15;9.40;99.90
7658;DHT22;8462;53.156;8.220;2024-03-02T01:31:43;9.40;99.90
7658;DHT22;8462;53.156;8.220;2024-03-02T01:34:12;9.30;99.90
7658;DHT22;8462;53.156;8.220;2024-03-02T01:36:39;9.30;99.90
7658;DHT22;8462;53.156;8.220;2024-03-02T01:39:08;9.30;99.90
7658;DHT22;8462;53.156;8.220;2024-03-02T01:41:38;9.30;99.90
7658;DHT22;8462;53.156;8.220;2024-03-02T01:44:05;9.30;99.90
7658;DHT22;8462;53.156;8.220;2024-03-02T01:46:32;9.30;99.90
7658;DHT22;8462;53.156;8.220;2024-03-02T01:49:00;9.30;99.90
7658;DHT22;8462;53.156;8.220;2024-03-02T01:51:29;9.30;99.90
7658;DHT22;8462;53.156;8.220;2024-03-02T01:53:57;9.20;99.90
7658;DHT22;8462;53.156;8.220;2024-03-02T01:56:26;9.20;99.90
7658;DHT22;8462;53.156;8.220;2024-03-02T01:58:54;9.20;99.90
7658;DHT22;8462;53.156;8.220;2024-03-02T02:01:23;9.20;99.90
7658;DHT22;8462;53.156;8.220;2024-03-02T02:03:54;9.20;99.90
7658;DHT22;8462;53.156;8.220;2024-03-02T02:06:22;9.20;99.90
7658;DHT22;8462;53.156;8.220;2024-03-02T02:08:50;9.20;99.90
7658;DHT22;8462;53.156;8.220;2024-03-02T02:11:19;9.20;99.90
7658;DHT22;8462;53.156;8.220;2024-03-02T02:13:56;9.20;99.90
7658;DHT22;8462;53.156;8.220;2024-03-02T02:16:26;9.10;99.90
7658;DHT22;8462;53.156;8.220;2024-03-02T02:18:55;9.10;99.90
7658;DHT22;8462;53.156;8.220;2024-03-02T02:21:24;9.10;99.90
7658;DHT22;8462;53.156;8.220;2024-03-02T02:23:52;9.10;99.90
7658;DHT22;8462;53.156;8.220;2024-03-02T02:26:19;9.00;99.90
7658;DHT22;8462;53.156;8.220;2024-03-02T02:28:47;9.00;99.90
7658;DHT22;8462;53.156;8.220;2024-03-02T02:31:16;9.00;99.90
7658;DHT22;8462;53.156;8.220;2024-03-02T02:33:43;9.00;99.90
7658;DHT22;8462;53.156;8.220;2024-03-02T02:36:11;8.90;99.90
7658;DHT22;8462;53.156;8.220;2024-03-02T02:38:46;8.90;99.90
7658;DHT22;8462;53.156;8.220;2024-03-02T02:41:16;8.80;99.90
7658;DHT22;8462;53.156;8.220;2024-03-02T02:43:49;8.80;99.90
7658;DHT22;8462;53.156;8.220;2024-03-02T02:46:16;8.80;99.90
7658;DHT22;8462;53.156;8.220;2024-03-02T02:48:45;8.80;99.90
7658;DHT22;8462;53.156;8.220;2024-03-02T02:51:22;8.80;99.90
7658;DHT22;8462;53.156;8.220;2024-03-02T02:53:53;8.80;99.90
7658;DHT22;8462;53.156;8.220;2024-03-02T02:56:23;8.70;99.90
7658;DHT22;8462;53.156;8.220;2024-03-02T02:58:51;8.60;99.90
7658;DHT22;8462;53.156;8.220;2024-03-02T03:01:20;8.60;99.90
7658;DHT22;8462;53.156;8.220;2024-03-02T03:03:48;8.50;99.90
7658;DHT22;8462;53.156;8.220;2024-03-02T03:06:16;8.50;99.90
7658;DHT22;8462;53.156;8.220;2024-03-02T03:08:43;8.50;99.90
7658;DHT22;8462;53.156;8.220;2024-03-02T03:11:15;8.50;99.90
7658;DHT22;8462;53.156;8.220;2024-03-02T03:13:43;8.60;99.90
7658;DHT22;8462;53.156;8.220;2024-03-02T03:16:13;8.60;99.90
7658;DHT22;8462;53.156;8.220;2024-03-02T03:18:40;8.60;99.90
7658;DHT22;8462;53.156;8.220;2024-03-02T03:21:09;8.60;99.90
7658;DHT22;8462;53.156;8.220;2024-03-02T03:23:38;8.70;99.90
7658;DHT22;8462;53.156;8.220;2024-03-02T03:26:08;8.70;99.90
7658;DHT22;8462;53.156;8.220;2024-03-02T03:28:37;8.70;99.90
7658;DHT22;8462;53.156;8.220;2024-03-02T03:31:05;8.70;99.90
7658;DHT22;8462;53.156;8.220;2024-03-02T03:33:35;8.70;99.90
7658;DHT22;8462;53.156;8.220;2024-03-02T03:36:06;8.70;99.90
7658;DHT22;8462;53.156;8.220;2024-03-02T03:38:35;8.60;99.90
7658;DHT22;8462;53.156;8.220;2024-03-02T03:41:04;8.60;99.90
7658;DHT22;8462;53.156;8.220;2024-03-02T03:43:31;8.60;99.90
7658;DHT22;8462;53.156;8.220;2024-03-02T03:46:06;8.60;99.90
7658;DHT22;8462;53.156;8.220;2024-03-02T03:48:35;8.60;99.90
7658;DHT22;8462;53.156;8.220;2024-03-02T03:51:03;8.50;99.90
7658;DHT22;8462;53.156;8.220;2024-03-02T03:53:31;8.50;99.90
7658;DHT22;8462;53.156;8.220;2024-03-02T03:55:59;8.50;99.90
7658;DHT22;8462;53.156;8.220;2024-03-02T03:58:29;8.40;99.90
7658;DHT22;8462;53.156;8.220;2024-03-02T04:01:00;8.40;99.90
7658;DHT22;8462;53.156;8.220;2024-03-02T04:03:32;8.30;99.90
7658;DHT22;8462;53.156;8.220;2024-03-02T04:06:00;8.30;99.90
7658;DHT22;8462;53.156;8.220;2024-03-02T04:08:31;8.30;99.90
7658;DHT22;8462;53.156;8.220;2024-03-02T04:11:00;8.30;99.90
7658;DHT22;8462;53.156;8.220;2024-03-02T04:13:29;8.30;99.90
7658;DHT22;8462;53.156;8.220;2024-03-02T04:15:56;8.30;99.90
7658;DHT22;8462;53.156;8.220;2024-03-02T04:18:25;8.30;99.90
7658;DHT22;8462;53.156;8.220;2024-03-02T04:20:54;8.30;99.90
7658;DHT22;8462;53.156;8.220;2024-03-02T04:23:33;8.20;99.90
7658;DHT22;8462;53.156;8.220;2024-03-02T04:26:00;8.20;99.90
7658;DHT22;8462;53.156;8.220;2024-03-02T04:28:28;8.20;99.90
7658;DHT22;8462;53.156;8.220;2024-03-02T04:31:09;8.20;99.90
7658;DHT22;8462;53.156;8.220;2024-03-02T04:33:43;8.20;99.90
7658;DHT22;8462;53.156;8.220;2024-03-02T04:36:13;8.20;99.90
7658;DHT22;8462;53.156;8.220;2024-03-02T04:38:41;8.10;99.90
7658;DHT22;8462;53.156;8.220;2024-03-02T04:41:10;8.10;99.90
7658;DHT22;8462;53.156;8.220;2024-03-02T04:43:37;8.10;99.90
7658;DHT22;8462;53.156;8.220;2024-03-02T04:46:07;8.00;99.90
7658;DHT22;8462;53.156;8.220;2024-03-02T04:48:34;8.00;99.90
7658;DHT22;8462;53.156;8.220;2024-03-02T04:51:02;8.00;99.90
7658;DHT22;8462;53.156;8.220;2024-03-02T04:53:35;8.00;99.90
7658;DHT22;8462;53.156;8.220;2024-03-02T04:56:02;8.10;99.90
7658;DHT22;8462;53.156;8.220;2024-03-02T04:59:06;8.10;99.90
7658;DHT22;8462;53.156;8.220;2024-03-02T05:01:35;8.10;99.90
7658;DHT22;8462;53.156;8.220;2024-03-02T05:04:03;8.10;99.90
7658;DHT22;8462;53.156;8.220;2024-03-02T05:06:31;8.10;99.90
7658;DHT22;8462;53.156;8.220;2024-03-02T05:09:01;8.10;99.90
7658;DHT22;8462;53.156;8.220;2024-03-02T05:11:28;8.10;99.90
7658;DHT22;8462;53.156;8.220;2024-03-02T05:14:12;8.10;99.90
7658;DHT22;8462;53.156;8.220;2024-03-02T05:16:41;8.10;99.90
7658;DHT22;8462;53.156;8.220;2024-03-02T05:19:09;8.10;99.90
7658;DHT22;8462;53.156;8.220;2024-03-02T05:21:40;8.20;99.90
7658;DHT22;8462;53.156;8.220;2024-03-02T05:24:17;8.20;99.90
7658;DHT22;8462;53.156;8.220;2024-03-02T05:26:46;8.20;99.90
7658;DHT22;8462;53.156;8.220;2024-03-02T05:29:15;8.30;99.90
7658;DHT22;8462;53.156;8.220;2024-03-02T05:31:44;8.30;99.90
7658;DHT22;8462;53.156;8.220;2024-03-02T05:34:17;8.40;99.90
7658;DHT22;8462;53.156;8.220;2024-03-02T05:36:46;8.40;99.90
7658;DHT22;8462;53.156;8.220;2024-03-02T05:39:14;8.40;99.90
7658;DHT22;8462;53.156;8.220;2024-03-02T05:41:45;8.40;99.90
7658;DHT22;8462;53.156;8.220;2024-03-02T05:44:21;8.40;99.90
7658;DHT22;8462;53.156;8.220;2024-03-02T05:46:50;8.50;99.90
7658;DHT22;8462;53.156;8.220;2024-03-02T05:49:19;8.50;99.90
7658;DHT22;8462;53.156;8.220;2024-03-02T05:51:47;8.50;99.90
7658;DHT22;8462;53.156;8.220;2024-03-02T05:54:18;8.50;99.90
7658;DHT22;8462;53.156;8.220;2024-03-02T05:56:47;8.50;99.90
7658;DHT22;8462;53.156;8.220;2024-03-02T05:59:15;8.50;99.90
7658;DHT22;8462;53.156;8.220;2024-03-02T06:01:45;8.40;99.90
7658;DHT22;8462;53.156;8.220;2024-03-02T06:04:13;8.40;99.90
7658;DHT22;8462;53.156;8.220;2024-03-02T06:06:40;8.50;99.90
7658;DHT22;8462;53.156;8.220;2024-03-02T06:09:09;8.50;99.90
7658;DHT22;8462;53.156;8.220;2024-03-02T06:11:40;8.50;99.90
7658;DHT22;8462;53.156;8.220;2024-03-02T06:14:10;8.50;99.90
7658;DHT22;8462;53.156;8.220;2024-03-02T06:16:41;8.50;99.90
7658;DHT22;8462;53.156;8.220;2024-03-02T06:19:09;8.50;99.90
7658;DHT22;8462;53.156;8.220;2024-03-02T06:21:42;8.50;99.90
7658;DHT22;8462;53.156;8.220;2024-03-02T06:24:15;8.60;99.90
7658;DHT22;8462;53.156;8.220;2024-03-02T06:26:44;8.60;99.90
7658;DHT22;8462;53.156;8.220;2024-03-02T06:29:12;8.60;99.90
7658;DHT22;8462;53.156;8.220;2024-03-02T06:31:43;8.60;99.90
7658;DHT22;8462;53.156;8.220;2024-03-02T06:34:13;8.70;99.90
7658;DHT22;8462;53.156;8.220;2024-03-02T06:36:42;8.70;99.90
7658;DHT22;8462;53.156;8.220;2024-03-02T06:39:09;8.80;99.90
7658;DHT22;8462;53.156;8.220;2024-03-02T06:41:38;8.90;99.90
7658;DHT22;8462;53.156;8.220;2024-03-02T06:44:13;8.90;99.90
7658;DHT22;8462;53.156;8.220;2024-03-02T06:46:45;9.00;99.90
7658;DHT22;8462;53.156;8.220;2024-03-02T06:49:13;9.10;99.90
7658;DHT22;8462;53.156;8.220;2024-03-02T06:51:46;9.10;99.90
7658;DHT22;8462;53.156;8.220;2024-03-02T06:54:13;9.20;99.90
7658;DHT22;8462;53.156;8.220;2024-03-02T06:56:42;9.20;99.90
7658;DHT22;8462;53.156;8.220;2024-03-02T06:59:16;9.20;99.90
7658;DHT22;8462;53.156;8.220;2024-03-02T07:01:43;9.20;99.90
7658;DHT22;8462;53.156;8.220;2024-03-02T07:04:13;9.30;99.90
7658;DHT22;8462;53.156;8.220;2024-03-02T07:06:41;9.30;99.90
7658;DHT22;8462;53.156;8.220;2024-03-02T07:09:09;9.30;99.90
7658;DHT22;8462;53.156;8.220;2024-03-02T07:11:38;9.30;99.90
7658;DHT22;8462;53.156;8.220;2024-03-02T07:14:06;9.30;99.90
7658;DHT22;8462;53.156;8.220;2024-03-02T07:16:38;9.30;99.90
7658;DHT22;8462;53.156;8.220;2024-03-02T07:19:12;9.30;99.90
7658;DHT22;8462;53.156;8.220;2024-03-02T07:21:40;9.30;99.90
7658;DHT22;8462;53.156;8.220;2024-03-02T07:24:07;9.40;99.90
7658;DHT22;8462;53.156;8.220;2024-03-02T07:26:40;9.40;99.90
7658;DHT22;8462;53.156;8.220;2024-03-02T07:29:09;9.40;99.90
7658;DHT22;8462;53.156;8.220;2024-03-02T07:31:39;9.40;99.90
7658;DHT22;8462;53.156;8.220;2024-03-02T07:34:32;9.40;99.90
7658;DHT22;8462;53.156;8.220;2024-03-02T07:37:01;9.40;99.90
7658;DHT22;8462;53.156;8.220;2024-03-02T07:39:29;9.40;99.90
7658;DHT22;8462;53.156;8.220;2024-03-02T07:41:58;9.40;99.90
7658;DHT22;8462;53.156;8.220;2024-03-02T07:44:27;9.50;99.90
7658;DHT22;8462;53.156;8.220;2024-03-02T07:46:56;9.50;99.90
7658;DHT22;8462;53.156;8.220;2024-03-02T07:49:23;9.60;99.90
7658;DHT22;8462;53.156;8.220;2024-03-02T07:51:51;9.70;99.90
7658;DHT22;8462;53.156;8.220;2024-03-02T07:54:19;9.80;99.90
7658;DHT22;8462;53.156;8.220;2024-03-02T07:56:46;9.90;99.90
7658;DHT22;8462;53.156;8.220;2024-03-02T07:59:18;9.90;99.90
7658;DHT22;8462;53.156;8.220;2024-03-02T08:01:49;10.10;99.90
7658;DHT22;8462;53.156;8.220;2024-03-02T08:04:18;10.20;99.90
7658;DHT22;8462;53.156;8.220;2024-03-02T08:06:45;10.40;99.90
7658;DHT22;8462;53.156;8.220;2024-03-02T08:09:16;10.50;99.90
7658;DHT22;8462;53.156;8.220;2024-03-02T08:11:48;10.60;99.90
7658;DHT22;8462;53.156;8.220;2024-03-02T08:14:19;10.80;99.90
7658;DHT22;8462;53.156;8.220;2024-03-02T08:16:47;10.90;99.90
7658;DHT22;8462;53.156;8.220;2024-03-02T08:19:14;11.10;99.90
7658;DHT22;8462;53.156;8.220;2024-03-02T08:21:46;11.20;99.90
7658;DHT22;8462;53.156;8.220;2024-03-02T08:24:15;11.40;99.90
7658;DHT22;8462;53.156;8.220;2024-03-02T08:26:43;11.60;99.80
7658;DHT22;8462;53.156;8.220;2024-03-02T08:29:13;11.70;99.90
7658;DHT22;8462;53.156;8.220;2024-03-02T08:31:40;11.80;99.20
7658;DHT22;8462;53.156;8.220;2024-03-02T08:34:07;11.90;99.10
7658;DHT22;8462;53.156;8.220;2024-03-02T08:36:34;12.10;99.00
7658;DHT22;8462;53.156;8.220;2024-03-02T08:39:07;12.20;98.40
7658;DHT22;8462;53.156;8.220;2024-03-02T08:41:41;12.30;98.30
7658;DHT22;8462;53.156;8.220;2024-03-02T08:44:16;12.40;98.10
7658;DHT22;8462;53.156;8.220;2024-03-02T08:46:44;12.50;97.80
7658;DHT22;8462;53.156;8.220;2024-03-02T08:49:11;12.70;97.70
7658;DHT22;8462;53.156;8.220;2024-03-02T08:51:39;12.90;97.50
7658;DHT22;8462;53.156;8.220;2024-03-02T08:54:09;13.10;97.10
7658;DHT22;8462;53.156;8.220;2024-03-02T08:56:39;13.30;96.90
7658;DHT22;8462;53.156;8.220;2024-03-02T08:59:09;13.50;96.10
7658;DHT22;8462;53.156;8.220;2024-03-02T09:01:38;13.70;95.50
7658;DHT22;8462;53.156;8.220;2024-03-02T09:04:07;13.90;96.00
7658;DHT22;8462;53.156;8.220;2024-03-02T09:06:36;14.00;95.20
7658;DHT22;8462;53.156;8.220;2024-03-02T09:09:05;14.20;94.60
7658;DHT22;8462;53.156;8.220;2024-03-02T09:11:36;14.20;94.20
7658;DHT22;8462;53.156;8.220;2024-03-02T09:14:04;14.20;94.20
7658;DHT22;8462;53.156;8.220;2024-03-02T09:16:33;14.30;94.10
7658;DHT22;8462;53.156;8.220;2024-03-02T09:19:03;14.30;94.00
7658;DHT22;8462;53.156;8.220;2024-03-02T09:21:30;14.40;93.80
7658;DHT22;8462;53.156;8.220;2024-03-02T09:23:59;14.60;93.60
7658;DHT22;8462;53.156;8.220;2024-03-02T09:26:28;14.60;93.20
7658;DHT22;8462;53.156;8.220;2024-03-02T09:28:57;14.70;92.90
7658;DHT22;8462;53.156;8.220;2024-03-02T09:31:26;14.70;92.70
7658;DHT22;8462;53.156;8.220;2024-03-02T09:33:55;14.80;92.70
7658;DHT22;8462;53.156;8.220;2024-03-02T09:36:23;14.80;92.50
7658;DHT22;8462;53.156;8.220;2024-03-02T09:38:52;14.90;92.50
7658;DHT22;8462;53.156;8.220;2024-03-02T09:41:21;14.90;92.30
7658;DHT22;8462;53.156;8.220;2024-03-02T09:43:49;15.00;92.10
7658;DHT22;8462;53.156;8.220;2024-03-02T09:46:18;15.10;92.40
7658;DHT22;8462;53.156;8.220;2024-03-02T09:48:47;15.20;91.90
7658;DHT22;8462;53.156;8.220;2024-03-02T09:51:15;15.30;92.00
7658;DHT22;8462;53.156;8.220;2024-03-02T09:53:50;15.40;91.70
7658;DHT22;8462;53.156;8.220;2024-03-02T09:56:21;15.40;91.90
7658;DHT22;8462;53.156;8.220;2024-03-02T09:58:50;15.30;91.60
7658;DHT22;8462;53.156;8.220;2024-03-02T10:01:19;15.40;91.50
7658;DHT22;8462;53.156;8.220;2024-03-02T10:03:49;15.50;91.40
7658;DHT22;8462;53.156;8.220;2024-03-02T10:06:21;15.60;91.20
7658;DHT22;8462;53.156;8.220;2024-03-02T10:08:52;15.70;91.30
7658;DHT22;8462;53.156;8.220;2024-03-02T10:11:29;15.80;90.80
7658;DHT22;8462;53.156;8.220;2024-03-02T10:14:08;15.90;90.40
7658;DHT22;8462;53.156;8.220;2024-03-02T10:16:39;15.90;91.00
7658;DHT22;8462;53.156;8.220;2024-03-02T10:19:18;15.90;90.20
7658;DHT22;8462;53.156;8.220;2024-03-02T10:21:47;16.00;90.40
7658;DHT22;8462;53.156;8.220;2024-03-02T10:24:17;16.10;89.70
7658;DHT22;8462;53.156;8.220;2024-03-02T10:26:49;16.10;89.60
7658;DHT22;8462;53.156;8.220;2024-03-02T10:29:17;16.10;89.60
7658;DHT22;8462;53.156;8.220;2024-03-02T10:31:48;16.20;89.90
7658;DHT22;8462;53.156;8.220;2024-03-02T10:34:15;16.20;89.00
7658;DHT22;8462;53.156;8.220;2024-03-02T10:36:44;16.20;88.80
7658;DHT22;8462;53.156;8.220;2024-03-02T10:39:18;16.20;89.20
7658;DHT22;8462;53.156;8.220;2024-03-02T10:41:48;16.20;88.40
7658;DHT22;8462;53.156;8.220;2024-03-02T10:44:19;16.20;89.20
7658;DHT22;8462;53.156;8.220;2024-03-02T10:46:50;16.30;88.70
7658;DHT22;8462;53.156;8.220;2024-03-02T10:49:20;16.30;88.30
7658;DHT22;8462;53.156;8.220;2024-03-02T10:51:55;16.20;87.30
7658;DHT22;8462;53.156;8.220;2024-03-02T10:54:24;16.20;87.20
7658;DHT22;8462;53.156;8.220;2024-03-02T10:56:58;16.20;87.80
7658;DHT22;8462;53.156;8.220;2024-03-02T10:59:28;16.20;88.40
7658;DHT22;8462;53.156;8.220;2024-03-02T11:01:59;16.20;87.40
7658;DHT22;8462;53.156;8.220;2024-03-02T11:04:28;16.20;87.30
7658;DHT22;8462;53.156;8.220;2024-03-02T11:07:00;16.10;87.20
7658;DHT22;8462;53.156;8.220;2024-03-02T11:09:34;16.10;87.40
7658;DHT22;8462;53.156;8.220;2024-03-02T11:12:06;16.10;87.60
7658;DHT22;8462;53.156;8.220;2024-03-02T11:14:51;16.10;87.10
7658;DHT22;8462;53.156;8.220;2024-03-02T11:17:25;16.10;87.40
7658;DHT22;8462;53.156;8.220;2024-03-02T11:19:54;16.20;88.60
7658;DHT22;8462;53.156;8.220;2024-03-02T11:22:24;16.30;87.90
7658;DHT22;8462;53.156;8.220;2024-03-02T11:24:53;16.30;87.30
7658;DHT22;8462;53.156;8.220;2024-03-02T11:30:51;16.30;86.70
7658;DHT22;8462;53.156;8.220;2024-03-02T11:33:25;16.30;87.40
7658;DHT22;8462;53.156;8.220;2024-03-02T11:35:58;16.30;87.00
7658;DHT22;8462;53.156;8.220;2024-03-02T11:38:33;16.30;86.60
7658;DHT22;8462;53.156;8.220;2024-03-02T11:41:06;16.40;86.90
7658;DHT22;8462;53.156;8.220;2024-03-02T11:43:37;16.30;86.30
7658;DHT22;8462;53.156;8.220;2024-03-02T11:46:10;16.30;86.50
7658;DHT22;8462;53.156;8.220;2024-03-02T11:48:42;16.30;87.20
7658;DHT22;8462;53.156;8.220;2024-03-02T11:51:11;16.30;87.80
7658;DHT22;8462;53.156;8.220;2024-03-02T11:53:39;16.40;87.30
7658;DHT22;8462;53.156;8.220;2024-03-02T11:56:09;16.30;86.60
7658;DHT22;8462;53.156;8.220;2024-03-02T11:58:39;16.20;87.30
7658;DHT22;8462;53.156;8.220;2024-03-02T12:01:10;16.20;87.60
7658;DHT22;8462;53.156;8.220;2024-03-02T12:03:38;16.20;88.00
7658;DHT22;8462;53.156;8.220;2024-03-02T12:06:08;16.30;88.10
7658;DHT22;8462;53.156;8.220;2024-03-02T12:08:41;16.30;88.10
7658;DHT22;8462;53.156;8.220;2024-03-02T12:11:13;16.30;88.30
7658;DHT22;8462;53.156;8.220;2024-03-02T12:13:52;16.30;88.20
7658;DHT22;8462;53.156;8.220;2024-03-02T12:16:24;16.40;87.60
7658;DHT22;8462;53.156;8.220;2024-03-02T12:18:52;16.30;87.70
7658;DHT22;8462;53.156;8.220;2024-03-02T12:21:23;16.20;87.20
7658;DHT22;8462;53.156;8.220;2024-03-02T12:23:52;16.10;87.40
7658;DHT22;8462;53.156;8.220;2024-03-02T12:26:22;16.00;87.40
7658;DHT22;8462;53.156;8.220;2024-03-02T12:28:50;16.10;87.90
7658;DHT22;8462;53.156;8.220;2024-03-02T12:31:18;16.10;87.80
7658;DHT22;8462;53.156;8.220;2024-03-02T12:33:47;16.10;87.80
7658;DHT22;8462;53.156;8.220;2024-03-02T12:36:14;16.20;88.80
7658;DHT22;8462;53.156;8.220;2024-03-02T12:38:44;16.20;86.90
7658;DHT22;8462;53.156;8.220;2024-03-02T12:41:14;16.10;87.00
7658;DHT22;8462;53.156;8.220;2024-03-02T12:43:43;15.90;87.20
7658;DHT22;8462;53.156;8.220;2024-03-02T12:46:11;15.90;88.30
7658;DHT22;8462;53.156;8.220;2024-03-02T12:48:41;15.90;88.40
7658;DHT22;8462;53.156;8.220;2024-03-02T12:51:17;16.00;87.90
7658;DHT22;8462;53.156;8.220;2024-03-02T12:53:53;16.00;87.70
7658;DHT22;8462;53.156;8.220;2024-03-02T12:56:20;16.00;87.10
7658;DHT22;8462;53.156;8.220;2024-03-02T12:58:54;16.10;87.30
7658;DHT22;8462;53.156;8.220;2024-03-02T13:01:22;16.10;87.30
7658;DHT22;8462;53.156;8.220;2024-03-02T13:03:53;16.10;86.70
7658;DHT22;8462;53.156;8.220;2024-03-02T13:06:22;16.10;86.40
7658;DHT22;8462;53.156;8.220;2024-03-02T13:08:51;16.00;86.80
7658;DHT22;8462;53.156;8.220;2024-03-02T13:11:22;16.00;87.10
7658;DHT22;8462;53.156;8.220;2024-03-02T13:13:53;16.00;87.50
7658;DHT22;8462;53.156;8.220;2024-03-02T13:16:21;16.10;87.40
7658;DHT22;8462;53.156;8.220;2024-03-02T13:18:49;16.10;87.20
7658;DHT22;8462;53.156;8.220;2024-03-02T13:21:21;16.10;87.60
7658;DHT22;8462;53.156;8.220;2024-03-02T13:23:52;16.20;87.90
7658;DHT22;8462;53.156;8.220;2024-03-02T13:26:19;16.30;87.20
7658;DHT22;8462;53.156;8.220;2024-03-02T13:28:49;16.50;87.10
7658;DHT22;8462;53.156;8.220;2024-03-02T13:31:17;16.50;87.10
7658;DHT22;8462;53.156;8.220;2024-03-02T13:33:45;16.60;86.80
7658;DHT22;8462;53.156;8.220;2024-03-02T13:36:14;16.70;86.70
7658;DHT22;8462;53.156;8.220;2024-03-02T13:38:43;16.60;87.00
7658;DHT22;8462;53.156;8.220;2024-03-02T13:41:12;16.60;86.30
7658;DHT22;8462;53.156;8.220;2024-03-02T13:43:41;16.70;86.60
7658;DHT22;8462;53.156;8.220;2024-03-02T13:46:10;16.70;87.80
7658;DHT22;8462;53.156;8.220;2024-03-02T13:48:37;16.80;88.00
7658;DHT22;8462;53.156;8.220;2024-03-02T13:51:06;16.80;86.90
7658;DHT22;8462;53.156;8.220;2024-03-02T13:53:34;16.80;87.20
7658;DHT22;8462;53.156;8.220;2024-03-02T13:56:05;16.70;86.70
7658;DHT22;8462;53.156;8.220;2024-03-02T13:58:34;16.60;88.20
7658;DHT22;8462;53.156;8.220;2024-03-02T14:01:03;16.40;87.90
7658;DHT22;8462;53.156;8.220;2024-03-02T14:03:32;16.40;88.10
7658;DHT22;8462;53.156;8.220;2024-03-02T14:06:03;16.40;88.10
7658;DHT22;8462;53.156;8.220;2024-03-02T14:08:31;16.30;88.10
7658;DHT22;8462;53.156;8.220;2024-03-02T14:11:03;16.30;88.40
7658;DHT22;8462;53.156;8.220;2024-03-02T14:13:31;16.40;88.40
7658;DHT22;8462;53.156;8.220;2024-03-02T14:16:01;16.40;88.50
7658;DHT22;8462;53.156;8.220;2024-03-02T14:18:29;16.50;88.40
7658;DHT22;8462;53.156;8.220;2024-03-02T14:20:59;16.50;88.70
7658;DHT22;8462;53.156;8.220;2024-03-02T14:23:27;16.50;88.10
7658;DHT22;8462;53.156;8.220;2024-03-02T14:25:58;16.40;88.50
7658;DHT22;8462;53.156;8.220;2024-03-02T14:28:26;16.40;88.70
7658;DHT22;8462;53.156;8.220;2024-03-02T14:30:54;16.40;88.90
7658;DHT22;8462;53.156;8.220;2024-03-02T14:33:23;16.40;88.90
7658;DHT22;8462;53.156;8.220;2024-03-02T14:35:50;16.40;89.00
7658;DHT22;8462;53.156;8.220;2024-03-02T14:38:19;16.40;89.20
7658;DHT22;8462;53.156;8.220;2024-03-02T14:40:48;16.20;89.40
7658;DHT22;8462;53.156;8.220;2024-03-02T14:43:15;16.10;89.70
7658;DHT22;8462;53.156;8.220;2024-03-02T14:45:44;16.00;90.10
7658;DHT22;8462;53.156;8.220;2024-03-02T14:48:12;15.90;90.10
7658;DHT22;8462;53.156;8.220;2024-03-02T14:50:43;15.80;90.30
7658;DHT22;8462;53.156;8.220;2024-03-02T14:53:11;15.70;90.30
7658;DHT22;8462;53.156;8.220;2024-03-02T14:55:38;15.70;90.50
7658;DHT22;8462;53.156;8.220;2024-03-02T14:58:07;15.70;90.60
7658;DHT22;8462;53.156;8.220;2024-03-02T15:00:37;15.70;91.20
7658;DHT22;8462;53.156;8.220;2024-03-02T15:03:05;15.70;90.90
7658;DHT22;8462;53.156;8.220;2024-03-02T15:05:37;15.70;90.90
7658;DHT22;8462;53.156;8.220;2024-03-02T15:08:10;15.70;90.90
7658;DHT22;8462;53.156;8.220;2024-03-02T15:10:38;15.70;90.90
7658;DHT22;8462;53.156;8.220;2024-03-02T15:13:07;15.70;91.10
7658;DHT22;8462;53.156;8.220;2024-03-02T15:15:36;15.70;91.10
7658;DHT22;8462;53.156;8.220;2024-03-02T15:18:03;15.70;90.90
7658;DHT22;8462;53.156;8.220;2024-03-02T15:20:33;15.70;90.80
7658;DHT22;8462;53.156;8.220;2024-03-02T15:23:01;15.60;90.60
7658;DHT22;8462;53.156;8.220;2024-03-02T15:25:31;15.60;90.80
7658;DHT22;8462;53.156;8.220;2024-03-02T15:27:59;15.60;90.80
7658;DHT22;8462;53.156;8.220;2024-03-02T15:30:29;15.60;90.90
7658;DHT22;8462;53.156;8.220;2024-03-02T15:32:59;15.60;90.70
7658;DHT22;8462;53.156;8.220;2024-03-02T15:35:31;15.50;90.50
7658;DHT22;8462;53.156;8.220;2024-03-02T15:38:00;15.50;90.50
7658;DHT22;8462;53.156;8.220;2024-03-02T15:40:32;15.50;90.60
7658;DHT22;8462;53.156;8.220;2024-03-02T15:43:05;15.50;90.60
7658;DHT22;8462;53.156;8.220;2024-03-02T15:45:34;15.50;90.60
7658;DHT22;8462;53.156;8.220;2024-03-02T15:48:01;15.50;90.70
7658;DHT22;8462;53.156;8.220;2024-03-02T15:50:30;15.50;90.70
7658;DHT22;8462;53.156;8.220;2024-03-02T15:52:59;15.40;90.80
7658;DHT22;8462;53.156;8.220;2024-03-02T15:55:32;15.40;90.90
7658;DHT22;8462;53.156;8.220;2024-03-02T15:58:01;15.40;90.90
7658;DHT22;8462;53.156;8.220;2024-03-02T16:00:32;15.40;90.90
7658;DHT22;8462;53.156;8.220;2024-03-02T16:03:01;15.40;90.90
7658;DHT22;8462;53.156;8.220;2024-03-02T16:05:30;15.30;90.80
7658;DHT22;8462;53.156;8.220;2024-03-02T16:07:57;15.40;90.90
7658;DHT22;8462;53.156;8.220;2024-03-02T16:10:29;15.30;91.00
7658;DHT22;8462;53.156;8.220;2024-03-02T16:12:58;15.30;91.00
7658;DHT22;8462;53.156;8.220;2024-03-02T16:15:27;15.30;91.00
7658;DHT22;8462;53.156;8.220;2024-03-02T16:17:56;15.30;91.00
7658;DHT22;8462;53.156;8.220;2024-03-02T16:20:28;15.30;91.10
7658;DHT22;8462;53.156;8.220;2024-03-02T16:22:56;15.30;91.10
7658;DHT22;8462;53.156;8.220;2024-03-02T16:25:26;15.20;91.10
7658;DHT22;8462;53.156;8.220;2024-03-02T16:27:55;15.20;91.20
7658;DHT22;8462;53.156;8.220;2024-03-02T16:30:25;15.20;91.20